createdAt,value
2019-03-12T00:00:54.614Z,101707.46
2019-03-12T00:03:21.242Z,101707.64
2019-03-12T00:05:48.072Z,101696.45
2019-03-12T00:08:14.664Z,101696.57
2019-03-12T00:10:41.515Z,101691.65
2019-03-12T00:13:08.105Z,101693.50
2019-03-12T00:15:34.724Z,101686.61
2019-03-12T00:18:01.472Z,101690.34
2019-03-12T00:20:28.161Z,101683.75
2019-03-12T00:22:54.878Z,101679.47
2019-03-12T00:25:21.868Z,101679.41
2019-03-12T00:27:48.490Z,101687.32
2019-03-12T00:30:15.199Z,101697.95
2019-03-12T00:32:41.837Z,101695.84
2019-03-12T00:35:08.632Z,101691.71
2019-03-12T00:37:35.249Z,101709.80
2019-03-12T00:40:02.219Z,101705.47
2019-03-12T00:42:28.955Z,101711.61
2019-03-12T00:44:55.697Z,101714.19
2019-03-12T00:47:22.564Z,101713.56
2019-03-12T00:49:49.175Z,101714.34
2019-03-12T00:52:15.892Z,101713.56
2019-03-12T00:54:42.519Z,101703.55
2019-03-12T00:57:09.221Z,101694.84
2019-03-12T00:59:35.829Z,101700.70
2019-03-12T01:02:02.684Z,101691.30
2019-03-12T01:04:29.290Z,101694.37
2019-03-12T01:06:56.105Z,101689.95
2019-03-12T01:09:22.818Z,101685.41
2019-03-12T01:11:49.438Z,101674.88
2019-03-12T01:14:16.132Z,101680.79
2019-03-12T01:16:42.878Z,101685.81
2019-03-12T01:19:09.470Z,101682.62
2019-03-12T01:21:36.115Z,101686.27
2019-03-12T01:24:02.965Z,101681.09
2019-03-12T01:26:29.587Z,101687.55
2019-03-12T01:28:56.188Z,101685.53
2019-03-12T01:31:22.944Z,101680.12
2019-03-12T01:33:49.649Z,101680.19
2019-03-12T01:36:16.354Z,101675.91
2019-03-12T01:38:43.094Z,101671.92
2019-03-12T01:41:09.703Z,101667.89
2019-03-12T01:43:36.432Z,101661.02
2019-03-12T01:46:03.255Z,101668.98
2019-03-12T01:48:29.853Z,101668.30
2019-03-12T01:50:56.462Z,101659.96
2019-03-12T01:53:23.089Z,101660.44
2019-03-12T01:55:49.809Z,101648.73
2019-03-12T01:58:16.436Z,101648.91
2019-03-12T02:00:43.064Z,101641.59
2019-03-12T02:03:09.786Z,101637.39
2019-03-12T02:05:36.373Z,101633.16
2019-03-12T02:08:03.122Z,101624.09
2019-03-12T02:10:29.843Z,101625.67
2019-03-12T02:12:56.474Z,101623.82
2019-03-12T02:15:23.524Z,101621.84
2019-03-12T02:17:50.344Z,101619.09
2019-03-12T02:20:17.059Z,101612.80
2019-03-12T02:22:43.823Z,101605.03
2019-03-12T02:25:12.322Z,101600.91
2019-03-12T02:27:39.097Z,101600.91
2019-03-12T02:30:07.462Z,101592.95
2019-03-12T02:32:34.124Z,101597.40
2019-03-12T02:35:00.688Z,101594.86
2019-03-12T02:37:27.428Z,101582.91
2019-03-12T02:39:54.018Z,101584.80
2019-03-12T02:42:20.665Z,101582.58
2019-03-12T02:44:47.291Z,101574.19
2019-03-12T02:47:13.933Z,101565.83
2019-03-12T02:49:40.631Z,101566.67
2019-03-12T02:52:07.476Z,101563.13
2019-03-12T02:54:34.110Z,101557.91
2019-03-12T02:57:00.915Z,101555.86
2019-03-12T02:59:27.611Z,101558.48
2019-03-12T03:01:54.401Z,101549.47
2019-03-12T03:04:21.169Z,101547.81
2019-03-12T03:07:04.889Z,101544.95
2019-03-12T03:09:31.698Z,101547.17
2019-03-12T03:11:58.458Z,101543.41
2019-03-12T03:14:30.929Z,101551.94
2019-03-12T03:16:57.645Z,101542.28
2019-03-12T03:19:24.664Z,101540.34
2019-03-12T03:21:51.435Z,101541.05
2019-03-12T03:24:18.059Z,101534.46
2019-03-12T03:26:44.744Z,101538.25
2019-03-12T03:29:11.373Z,101530.72
2019-03-12T03:31:38.524Z,101532.47
2019-03-12T03:34:05.189Z,101528.66
2019-03-12T03:36:31.950Z,101528.66
2019-03-12T03:38:58.597Z,101524.70
2019-03-12T03:41:25.548Z,101523.00
2019-03-12T03:43:52.335Z,101529.59
2019-03-12T03:46:18.966Z,101528.13
2019-03-12T03:48:45.958Z,101519.83
2019-03-12T03:51:12.753Z,101523.50
2019-03-12T03:53:39.674Z,101515.66
2019-03-12T03:56:06.651Z,101510.90
2019-03-12T03:58:33.317Z,101504.36
2019-03-12T04:01:00.267Z,101502.25
2019-03-12T04:03:27.265Z,101496.48
2019-03-12T04:05:53.872Z,101501.66
2019-03-12T04:08:20.612Z,101503.30
2019-03-12T04:10:47.272Z,101493.75
2019-03-12T04:13:13.946Z,101487.80
2019-03-12T04:15:40.543Z,101491.32
2019-03-12T04:18:07.490Z,101487.09
2019-03-12T04:20:34.119Z,101481.77
2019-03-12T04:23:00.746Z,101483.08
2019-03-12T04:25:27.373Z,101472.84
2019-03-12T04:27:53.985Z,101469.73
2019-03-12T04:30:20.624Z,101463.59
2019-03-12T04:32:47.407Z,101463.66
2019-03-12T04:35:15.496Z,101463.86
2019-03-12T04:37:42.108Z,101459.36
2019-03-12T04:40:09.349Z,101457.31
2019-03-12T04:42:36.039Z,101464.86
2019-03-12T04:45:03.803Z,101458.58
2019-03-12T04:47:30.411Z,101458.20
2019-03-12T04:49:57.016Z,101451.33
2019-03-12T04:52:23.634Z,101444.39
2019-03-12T04:54:50.379Z,101431.89
2019-03-12T04:57:17.090Z,101429.33
2019-03-12T04:59:43.679Z,101417.48
2019-03-12T05:02:10.291Z,101419.70
2019-03-12T05:04:36.927Z,101413.86
2019-03-12T05:07:03.717Z,101408.44
2019-03-12T05:09:30.348Z,101416.68
2019-03-12T05:11:56.947Z,101418.97
2019-03-12T05:14:42.583Z,101415.91
2019-03-12T05:17:23.141Z,101416.28
2019-03-12T05:19:49.748Z,101409.63
2019-03-12T05:22:18.255Z,101407.66
2019-03-12T05:24:44.856Z,101408.56
2019-03-12T05:27:11.651Z,101401.91
2019-03-12T05:29:38.393Z,101400.92
2019-03-12T05:32:05.185Z,101385.59
2019-03-12T05:34:31.784Z,101390.80
2019-03-12T05:36:58.584Z,101387.42
2019-03-12T05:39:25.212Z,101383.30
2019-03-12T05:41:51.804Z,101384.17
2019-03-12T05:44:18.578Z,101376.06
2019-03-12T05:46:45.180Z,101376.41
2019-03-12T05:49:11.938Z,101370.23
2019-03-12T05:51:38.568Z,101362.41
2019-03-12T05:54:05.230Z,101364.66
2019-03-12T05:56:31.826Z,101361.08
2019-03-12T05:58:58.482Z,101350.21
2019-03-12T06:01:25.076Z,101345.63
2019-03-12T06:03:51.757Z,101345.77
2019-03-12T06:06:18.380Z,101338.36
2019-03-12T06:08:45.172Z,101341.81
2019-03-12T06:11:11.773Z,101340.36
2019-03-12T06:13:38.377Z,101331.04
2019-03-12T06:16:04.972Z,101326.52
2019-03-12T06:18:31.570Z,101329.72
2019-03-12T06:20:58.202Z,101324.76
2019-03-12T06:23:24.797Z,101316.41
2019-03-12T06:25:51.394Z,101309.25
2019-03-12T06:28:18.276Z,101315.39
2019-03-12T06:30:56.219Z,101312.86
2019-03-12T06:33:26.248Z,101308.54
2019-03-12T06:36:05.697Z,101299.11
2019-03-12T06:38:50.040Z,101297.55
2019-03-12T06:41:36.307Z,101294.26
2019-03-12T06:44:11.536Z,101298.83
2019-03-12T06:46:44.272Z,101288.02
2019-03-12T06:49:31.416Z,101269.27
2019-03-12T06:52:29.301Z,101272.86
2019-03-12T06:55:20.883Z,101258.88
2019-03-12T06:58:27.078Z,101256.66
2019-03-12T07:01:01.255Z,101254.95
2019-03-12T07:03:36.282Z,101248.15
2019-03-12T07:06:21.446Z,101242.12
2019-03-12T07:08:59.157Z,101235.96
2019-03-12T07:11:44.551Z,101227.47
2019-03-12T07:14:29.421Z,101220.58
2019-03-12T07:17:21.625Z,101219.71
2019-03-12T07:19:56.784Z,101198.27
2019-03-12T07:22:48.403Z,101199.42
2019-03-12T07:25:21.294Z,101199.53
2019-03-12T07:28:07.918Z,101193.56
2019-03-12T07:30:45.382Z,101194.94
2019-03-12T07:33:18.162Z,101199.23
2019-03-12T07:35:58.358Z,101198.27
2019-03-12T07:38:45.855Z,101196.73
2019-03-12T07:41:41.075Z,101194.70
2019-03-12T07:44:27.346Z,101192.84
2019-03-12T07:47:01.189Z,101180.71
2019-03-12T07:49:45.977Z,101186.29
2019-03-12T07:52:32.217Z,101186.34
2019-03-12T07:55:05.926Z,101177.16
2019-03-12T07:57:52.269Z,101172.09
2019-03-12T08:00:37.297Z,101163.39
2019-03-12T08:03:15.099Z,101167.23
2019-03-12T08:06:13.265Z,101170.67
2019-03-12T08:08:53.011Z,101152.48
2019-03-12T08:11:27.643Z,101157.30
2019-03-12T08:14:12.784Z,101143.62
2019-03-12T08:17:04.725Z,101131.19
2019-03-12T08:19:43.871Z,101124.99
2019-03-12T08:22:36.103Z,101110.77
2019-03-12T08:25:13.347Z,101095.45
2019-03-12T08:27:59.533Z,101103.69
2019-03-12T08:30:34.184Z,101085.56
2019-03-12T08:33:17.236Z,101091.98
2019-03-12T08:35:59.142Z,101077.92
2019-03-12T08:38:41.742Z,101069.23
2019-03-12T08:41:28.203Z,101065.57
2019-03-12T08:44:02.742Z,101041.38
2019-03-12T08:46:52.030Z,101043.36
2019-03-12T08:49:38.904Z,101022.16
2019-03-12T08:52:27.854Z,101019.58
2019-03-12T08:55:04.493Z,101007.36
2019-03-12T08:58:03.079Z,101002.11
2019-03-12T09:00:48.478Z,101012.87
2019-03-12T09:03:33.480Z,101008.36
2019-03-12T09:06:13.493Z,101003.53
2019-03-12T09:08:47.378Z,101004.45
2019-03-12T09:11:38.090Z,100988.02
2019-03-12T09:14:19.160Z,100989.00
2019-03-12T09:16:57.405Z,100976.06
2019-03-12T09:19:52.771Z,100965.64
2019-03-12T09:22:37.740Z,100949.46
2019-03-12T09:25:18.402Z,100929.96
2019-03-12T09:28:11.608Z,100918.39
2019-03-12T09:30:48.681Z,100908.82
2019-03-12T09:33:25.911Z,100911.41
2019-03-12T09:36:12.167Z,100899.02
2019-03-12T09:38:46.654Z,100905.50
2019-03-12T09:41:30.501Z,100891.91
2019-03-12T09:44:08.014Z,100896.18
2019-03-12T09:46:46.624Z,100894.18
2019-03-12T09:49:27.993Z,100878.91
2019-03-12T09:52:08.181Z,100870.41
2019-03-12T09:54:57.060Z,100876.39
2019-03-12T09:57:42.061Z,100857.17
2019-03-12T10:00:21.010Z,100859.39
2019-03-12T10:03:06.476Z,100844.59
2019-03-12T10:05:53.552Z,100831.39
2019-03-12T10:08:38.711Z,100818.77
2019-03-12T10:11:23.813Z,100806.75
2019-03-12T10:14:22.227Z,100821.90
2019-03-12T10:17:13.549Z,100803.84
2019-03-12T10:20:06.436Z,100792.50
2019-03-12T10:22:53.119Z,100786.47
2019-03-12T10:25:37.342Z,100774.88
2019-03-12T10:28:18.492Z,100767.59
2019-03-12T10:30:59.108Z,100754.83
2019-03-12T10:33:43.274Z,100758.39
2019-03-12T10:36:31.173Z,100752.11
2019-03-12T10:40:01.504Z,100751.16
2019-03-12T10:42:47.811Z,100735.16
2019-03-12T10:45:33.513Z,100730.95
2019-03-12T10:48:00.654Z,100719.19
2019-03-12T10:50:28.402Z,100717.97
2019-03-12T10:52:55.296Z,100703.91
2019-03-12T10:55:22.414Z,100689.67
2019-03-12T10:57:49.047Z,100683.63
2019-03-12T11:00:16.064Z,100683.30
2019-03-12T11:02:43.494Z,100669.10
2019-03-12T11:05:10.285Z,100649.97
2019-03-12T11:07:37.170Z,100655.91
2019-03-12T11:10:05.103Z,100642.42
2019-03-12T11:12:31.954Z,100638.66
2019-03-12T11:14:59.433Z,100620.28
2019-03-12T11:17:27.022Z,100618.62
2019-03-12T11:19:53.645Z,100613.45
2019-03-12T11:22:20.425Z,100619.59
2019-03-12T11:24:47.625Z,100615.70
2019-03-12T11:27:14.898Z,100592.90
2019-03-12T11:29:41.595Z,100596.89
2019-03-12T11:32:08.423Z,100586.89
2019-03-12T11:34:38.604Z,100581.38
2019-03-12T11:37:05.016Z,100578.37
2019-03-12T11:39:31.610Z,100564.42
2019-03-12T11:41:58.466Z,100588.69
2019-03-12T11:44:25.378Z,100545.81
2019-03-12T11:46:51.996Z,100552.11
2019-03-12T11:49:18.868Z,100540.08
2019-03-12T11:51:45.819Z,100534.16
2019-03-12T11:54:13.800Z,100534.33
2019-03-12T11:56:41.061Z,100521.27
2019-03-12T11:59:07.883Z,100520.62
2019-03-12T12:01:35.085Z,100525.23
2019-03-12T12:04:02.458Z,100512.09
2019-03-12T12:06:29.952Z,100488.67
2019-03-12T12:08:57.796Z,100495.40
2019-03-12T12:11:24.532Z,100495.08
2019-03-12T12:13:51.271Z,100487.48
2019-03-12T12:16:17.883Z,100486.56
2019-03-12T12:18:44.741Z,100482.66
2019-03-12T12:21:11.605Z,100474.98
2019-03-12T12:23:38.379Z,100458.64
2019-03-12T12:26:05.301Z,100447.17
2019-03-12T12:28:31.998Z,100453.77
2019-03-12T12:30:58.715Z,100434.88
2019-03-12T12:33:25.695Z,100440.37
2019-03-12T12:35:52.415Z,100416.17
2019-03-12T12:38:19.051Z,100412.58
2019-03-12T12:40:45.848Z,100399.78
2019-03-12T12:43:12.581Z,100395.12
2019-03-12T12:45:39.348Z,100402.63
2019-03-12T12:48:06.318Z,100406.75
2019-03-12T12:50:33.489Z,100395.38
2019-03-12T12:53:00.302Z,100377.02
2019-03-12T12:55:27.218Z,100381.48
2019-03-12T12:57:54.140Z,100363.86
2019-03-12T13:00:20.995Z,100381.52
2019-03-12T13:02:47.972Z,100346.53
2019-03-12T13:05:15.122Z,100335.63
2019-03-12T13:07:41.923Z,100315.34
2019-03-12T13:10:11.618Z,100321.00
2019-03-12T13:12:38.215Z,100282.89
2019-03-12T13:15:05.536Z,100287.70
2019-03-12T13:17:32.568Z,100289.00
2019-03-12T13:19:59.202Z,100283.71
2019-03-12T13:22:25.821Z,100278.86
2019-03-12T13:24:52.496Z,100261.94
2019-03-12T13:27:19.203Z,100258.64
2019-03-12T13:29:45.866Z,100251.15
2019-03-12T13:32:13.915Z,100242.23
2019-03-12T13:34:41.120Z,100240.31
2019-03-12T13:37:07.788Z,100216.94
2019-03-12T13:39:34.447Z,100212.48
2019-03-12T13:42:01.440Z,100177.15
2019-03-12T13:44:28.442Z,100198.03
2019-03-12T13:46:55.270Z,100184.64
2019-03-12T13:49:21.893Z,100190.80
2019-03-12T13:51:48.810Z,100169.09
2019-03-12T13:54:15.920Z,100119.84
2019-03-12T13:56:42.623Z,100168.80
2019-03-12T13:59:09.365Z,100144.03
2019-03-12T14:01:36.293Z,100152.97
2019-03-12T14:04:10.472Z,100146.27
2019-03-12T14:06:31.505Z,100134.33
2019-03-12T14:08:58.380Z,100130.14
2019-03-12T14:11:25.084Z,100087.33
2019-03-12T14:13:51.883Z,100110.41
2019-03-12T14:16:18.800Z,100103.12
2019-03-12T14:18:45.617Z,100096.19
2019-03-12T14:21:13.868Z,100084.73
2019-03-12T14:23:43.509Z,100088.67
2019-03-12T14:26:11.834Z,100059.48
2019-03-12T14:28:38.433Z,100072.83
2019-03-12T14:31:05.271Z,100053.41
2019-03-12T14:33:31.879Z,100053.93
2019-03-12T14:35:58.677Z,100040.34
2019-03-12T14:38:25.507Z,100047.56
2019-03-12T14:40:52.792Z,100025.89
2019-03-12T14:43:19.726Z,100022.83
2019-03-12T14:45:47.277Z,100013.39
2019-03-12T14:48:39.966Z,100011.16
2019-03-12T14:51:10.791Z,100004.75
2019-03-12T14:53:38.072Z,99998.11
2019-03-12T14:56:04.847Z,99990.02
2019-03-12T14:58:31.482Z,99982.81
2019-03-12T15:00:58.744Z,99985.87
2019-03-12T15:03:25.417Z,99973.93
2019-03-12T15:05:52.384Z,99958.08
2019-03-12T15:08:20.452Z,99953.63
2019-03-12T15:10:47.429Z,99939.75
2019-03-12T15:13:14.194Z,99940.55
2019-03-12T15:15:40.827Z,99923.63
2019-03-12T15:18:07.428Z,99924.44
2019-03-12T15:20:34.463Z,99913.56
2019-03-12T15:23:01.193Z,99907.70
2019-03-12T15:25:27.792Z,99896.33
2019-03-12T15:27:54.439Z,99881.90
2019-03-12T15:30:22.346Z,99873.56
2019-03-12T15:32:49.693Z,99860.22
2019-03-12T15:35:16.537Z,99861.05
2019-03-12T15:37:44.287Z,99855.75
2019-03-12T15:40:11.952Z,99853.55
2019-03-12T15:42:39.091Z,99825.78
2019-03-12T15:45:06.710Z,99830.49
2019-03-12T15:47:38.681Z,99824.09
2019-03-12T15:50:03.834Z,99813.84
2019-03-12T15:52:30.597Z,99795.78
2019-03-12T15:54:57.689Z,99788.53
2019-03-12T15:57:25.521Z,99784.90
2019-03-12T15:59:52.279Z,99766.59
2019-03-12T16:02:18.986Z,99753.25
2019-03-12T16:04:45.799Z,99747.14
2019-03-12T16:07:12.665Z,99735.48
2019-03-12T16:09:39.398Z,99736.84
2019-03-12T16:12:06.410Z,99718.25
2019-03-12T16:14:33.125Z,99707.40
2019-03-12T16:17:00.631Z,99707.99
2019-03-12T16:19:27.364Z,99703.53
2019-03-12T16:21:54.292Z,99691.05
2019-03-12T16:24:20.888Z,99679.91
2019-03-12T16:26:47.594Z,99677.12
2019-03-12T16:29:14.412Z,99669.09
2019-03-12T16:31:41.042Z,99673.52
2019-03-12T16:34:07.659Z,99669.66
2019-03-12T16:36:34.402Z,99669.66
2019-03-12T16:39:01.301Z,99645.50
2019-03-12T16:41:28.126Z,99642.13
2019-03-12T16:43:54.951Z,99624.37
2019-03-12T16:46:21.719Z,99614.61
2019-03-12T16:48:48.588Z,99597.41
2019-03-12T16:51:15.201Z,99609.05
2019-03-12T16:53:41.816Z,99590.69
2019-03-12T16:56:08.464Z,99581.52
2019-03-12T16:58:35.137Z,99573.75
2019-03-12T17:01:01.848Z,99579.27
2019-03-12T17:03:28.487Z,99565.94
2019-03-12T17:05:55.293Z,99569.80
2019-03-12T17:08:21.989Z,99557.30
2019-03-12T17:10:55.987Z,99551.48
2019-03-12T17:13:17.434Z,99551.22
2019-03-12T17:15:44.073Z,99565.68
2019-03-12T17:18:10.864Z,99557.64
2019-03-12T17:20:37.467Z,99556.78
2019-03-12T17:23:04.257Z,99547.05
2019-03-12T17:25:31.072Z,99532.89
2019-03-12T17:27:57.744Z,99525.69
2019-03-12T17:30:25.402Z,99521.82
2019-03-12T17:32:52.035Z,99515.14
2019-03-12T17:35:20.890Z,99497.89
2019-03-12T17:37:47.563Z,99454.27
2019-03-12T17:40:16.393Z,99471.81
2019-03-12T17:42:43.169Z,99460.14
2019-03-12T17:45:10.484Z,99469.85
2019-03-12T17:47:37.737Z,99432.09
2019-03-12T17:50:04.603Z,99446.50
2019-03-12T17:52:31.318Z,99438.73
2019-03-12T17:54:57.939Z,99442.06
2019-03-12T17:57:24.564Z,99446.23
2019-03-12T17:59:51.260Z,99434.87
2019-03-12T18:02:17.874Z,99426.53
2019-03-12T18:04:44.479Z,99412.07
2019-03-12T18:07:11.197Z,99410.99
2019-03-12T18:09:37.920Z,99414.30
2019-03-12T18:12:04.518Z,99422.63
2019-03-12T18:14:31.179Z,99391.70
2019-03-12T18:16:57.833Z,99401.17
2019-03-12T18:19:24.459Z,99407.24
2019-03-12T18:21:51.165Z,99403.68
2019-03-12T18:24:18.201Z,99365.34
2019-03-12T18:26:44.970Z,99347.55
2019-03-12T18:29:11.573Z,99354.80
2019-03-12T18:31:38.313Z,99358.97
2019-03-12T18:34:05.040Z,99366.74
2019-03-12T18:36:31.693Z,99360.10
2019-03-12T18:39:02.841Z,99323.67
2019-03-12T18:41:27.168Z,99322.85
2019-03-12T18:43:54.030Z,99329.17
2019-03-12T18:46:20.654Z,99324.44
2019-03-12T18:48:47.269Z,99331.69
2019-03-12T18:51:13.924Z,99332.52
2019-03-12T18:53:40.718Z,99313.89
2019-03-12T18:56:08.175Z,99314.16
2019-03-12T18:58:35.003Z,99295.49
2019-03-12T19:01:07.532Z,99281.88
2019-03-12T19:03:34.262Z,99276.80
2019-03-12T19:06:01.009Z,99265.92
2019-03-12T19:08:27.746Z,99263.09
2019-03-12T19:10:54.502Z,99271.98
2019-03-12T19:13:21.568Z,99251.39
2019-03-12T19:15:48.199Z,99248.87
2019-03-12T19:18:15.122Z,99226.63
2019-03-12T19:20:41.892Z,99245.70
2019-03-12T19:23:08.556Z,99248.84
2019-03-12T19:25:38.137Z,99258.02
2019-03-12T19:28:04.205Z,99261.94
2019-03-12T19:30:31.237Z,99275.20
2019-03-12T19:33:00.939Z,99255.25
2019-03-12T19:35:27.856Z,99278.77
2019-03-12T19:37:54.948Z,99256.36
2019-03-12T19:40:22.025Z,99278.21
2019-03-12T19:42:48.808Z,99276.16
2019-03-12T19:45:15.647Z,99280.38
2019-03-12T19:47:42.255Z,99237.79
2019-03-12T19:50:11.226Z,99284.64
2019-03-12T19:52:38.026Z,99271.83
2019-03-12T19:55:06.424Z,99268.28
2019-03-12T19:57:33.222Z,99280.76
2019-03-12T19:59:59.883Z,99234.44
2019-03-12T20:02:27.620Z,99270.58
2019-03-12T20:04:54.455Z,99264.21
2019-03-12T20:07:21.116Z,99255.89
2019-03-12T20:10:16.260Z,99248.25
2019-03-12T20:13:21.134Z,99248.89
2019-03-12T20:16:35.433Z,99225.89
2019-03-12T20:19:40.952Z,99217.88
2019-03-12T20:22:48.600Z,99234.53
2019-03-12T20:26:10.179Z,99217.45
2019-03-12T20:29:23.647Z,99218.92
2019-03-12T20:32:08.829Z,99203.98
2019-03-12T20:35:23.939Z,99199.03
2019-03-12T20:38:27.775Z,99192.64
2019-03-12T20:41:26.627Z,99179.84
2019-03-12T20:44:26.969Z,99181.30
2019-03-12T20:47:37.862Z,99165.41
2019-03-12T20:50:33.178Z,99163.42
2019-03-12T20:53:38.170Z,99176.16
2019-03-12T20:56:20.912Z,99171.66
2019-03-12T20:59:43.957Z,99173.75
2019-03-12T21:02:51.868Z,99175.09
2019-03-12T21:05:55.368Z,99171.97
2019-03-12T21:09:01.733Z,99164.98
2019-03-12T21:12:23.991Z,99154.41
2019-03-12T21:15:07.904Z,99165.46
2019-03-12T21:18:21.107Z,99172.08
2019-03-12T21:21:41.849Z,99174.48
2019-03-12T21:24:58.460Z,99209.56
2019-03-12T21:27:59.111Z,99255.32
2019-03-12T21:30:26.286Z,99340.58
2019-03-12T21:32:53.025Z,99346.70
2019-03-12T21:35:20.131Z,99348.28
2019-03-12T21:37:47.278Z,99381.84
2019-03-12T21:40:14.153Z,99380.65
2019-03-12T21:42:40.942Z,99389.38
2019-03-12T21:45:08.787Z,99395.12
2019-03-12T21:47:35.540Z,99407.50
2019-03-12T21:50:03.184Z,99444.70
2019-03-12T21:52:30.197Z,99422.50
2019-03-12T21:54:57.016Z,99437.95
2019-03-12T21:57:24.073Z,99443.42
2019-03-12T21:59:51.303Z,99449.44
2019-03-12T22:02:18.312Z,99470.84
2019-03-12T22:04:45.363Z,99453.33
2019-03-12T22:07:12.464Z,99493.56
2019-03-12T22:09:39.097Z,99494.62
2019-03-12T22:12:05.963Z,99491.75
2019-03-12T22:14:32.597Z,99499.52
2019-03-12T22:17:00.916Z,99512.80
2019-03-12T22:19:27.608Z,99503.71
2019-03-12T22:22:02.233Z,99501.83
2019-03-12T22:24:29.042Z,99514.80
2019-03-12T22:26:55.776Z,99499.92
2019-03-12T22:29:22.438Z,99515.34
2019-03-12T22:31:49.057Z,99538.05
2019-03-12T22:34:15.698Z,99533.92
2019-03-12T22:36:42.438Z,99541.36
2019-03-12T22:39:09.156Z,99558.96
2019-03-12T22:41:35.968Z,99554.06
2019-03-12T22:44:02.683Z,99569.44
2019-03-12T22:48:13.648Z,99562.70
2019-03-12T22:52:15.322Z,99582.39
2019-03-12T22:56:17.141Z,99585.70
2019-03-12T23:00:19.691Z,99601.69
2019-03-12T23:04:22.008Z,99607.58
2019-03-12T23:08:24.092Z,99602.85
2019-03-12T23:12:31.328Z,99610.69
2019-03-12T23:16:33.382Z,99612.56
2019-03-12T23:20:35.277Z,99618.00
2019-03-12T23:24:37.097Z,99631.25
2019-03-12T23:28:38.920Z,99623.31
2019-03-12T23:32:40.917Z,99645.86
2019-03-12T23:36:42.774Z,99651.16
2019-03-12T23:40:44.647Z,99659.15
2019-03-12T23:44:46.410Z,99659.77
2019-03-12T23:48:48.213Z,99664.23
2019-03-12T23:52:50.022Z,99672.17
2019-03-12T23:56:51.891Z,99674.22
